sensor_id;sensor_type;location;lat;lon;timestamp;P1;durP1;ratioP1;P2;durP2;ratioP2
56736;SDS011;42618;51.226;4.910;2023-06-22T00:01:19;7.68;;;3.85;;
56736;SDS011;42618;51.226;4.910;2023-06-22T00:06:13;5.87;;;3.00;;
56736;SDS011;42618;51.226;4.910;2023-06-22T00:08:40;4.90;;;3.33;;
56736;SDS011;42618;51.226;4.910;2023-06-22T00:11:07;7.75;;;3.75;;
56736;SDS011;42618;51.226;4.910;2023-06-22T00:13:33;4.35;;;3.08;;
56736;SDS011;42618;51.226;4.910;2023-06-22T00:16:00;4.65;;;3.45;;
56736;SDS011;42618;51.226;4.910;2023-06-22T00:18:27;4.50;;;3.33;;
56736;SDS011;42618;51.226;4.910;2023-06-22T00:20:55;4.93;;;3.38;;
56736;SDS011;42618;51.226;4.910;2023-06-22T00:23:25;6.32;;;3.45;;
56736;SDS011;42618;51.226;4.910;2023-06-22T00:25:52;3.95;;;3.50;;
56736;SDS011;42618;51.226;4.910;2023-06-22T00:28:19;5.50;;;3.45;;
56736;SDS011;42618;51.226;4.910;2023-06-22T00:30:48;4.28;;;3.10;;
56736;SDS011;42618;51.226;4.910;2023-06-22T00:33:15;5.28;;;3.15;;
56736;SDS011;42618;51.226;4.910;2023-06-22T00:35:43;4.60;;;3.42;;
56736;SDS011;42618;51.226;4.910;2023-06-22T00:38:10;4.07;;;3.40;;
56736;SDS011;42618;51.226;4.910;2023-06-22T00:40:37;5.50;;;3.08;;
56736;SDS011;42618;51.226;4.910;2023-06-22T00:43:04;5.30;;;3.25;;
56736;SDS011;42618;51.226;4.910;2023-06-22T00:45:32;4.47;;;3.35;;
56736;SDS011;42618;51.226;4.910;2023-06-22T00:47:59;4.43;;;3.20;;
56736;SDS011;42618;51.226;4.910;2023-06-22T00:50:30;5.32;;;3.15;;
56736;SDS011;42618;51.226;4.910;2023-06-22T00:53:03;3.95;;;2.95;;
56736;SDS011;42618;51.226;4.910;2023-06-22T00:55:37;3.80;;;3.22;;
56736;SDS011;42618;51.226;4.910;2023-06-22T00:58:09;9.52;;;3.22;;
56736;SDS011;42618;51.226;4.910;2023-06-22T01:03:04;4.25;;;3.20;;
56736;SDS011;42618;51.226;4.910;2023-06-22T01:05:35;5.38;;;3.38;;
56736;SDS011;42618;51.226;4.910;2023-06-22T01:11:16;4.82;;;3.45;;
56736;SDS011;42618;51.226;4.910;2023-06-22T01:16:15;8.27;;;4.00;;
56736;SDS011;42618;51.226;4.910;2023-06-22T01:18:47;5.40;;;3.47;;
56736;SDS011;42618;51.226;4.910;2023-06-22T01:21:16;4.95;;;3.35;;
56736;SDS011;42618;51.226;4.910;2023-06-22T01:27:00;5.93;;;3.60;;
56736;SDS011;42618;51.226;4.910;2023-06-22T01:29:49;5.88;;;3.55;;
56736;SDS011;42618;51.226;4.910;2023-06-22T01:32:19;5.72;;;4.25;;
56736;SDS011;42618;51.226;4.910;2023-06-22T01:34:47;6.00;;;3.90;;
56736;SDS011;42618;51.226;4.910;2023-06-22T01:37:15;6.82;;;4.10;;
56736;SDS011;42618;51.226;4.910;2023-06-22T01:39:42;6.32;;;4.22;;
56736;SDS011;42618;51.226;4.910;2023-06-22T01:42:10;5.97;;;3.90;;
56736;SDS011;42618;51.226;4.910;2023-06-22T01:44:39;5.50;;;3.75;;
56736;SDS011;42618;51.226;4.910;2023-06-22T01:47:08;6.15;;;3.60;;
56736;SDS011;42618;51.226;4.910;2023-06-22T01:49:35;5.00;;;4.20;;
56736;SDS011;42618;51.226;4.910;2023-06-22T01:52:04;6.78;;;3.60;;
56736;SDS011;42618;51.226;4.910;2023-06-22T01:54:31;5.63;;;3.55;;
56736;SDS011;42618;51.226;4.910;2023-06-22T01:56:58;7.80;;;4.18;;
56736;SDS011;42618;51.226;4.910;2023-06-22T02:02:02;5.45;;;4.05;;
56736;SDS011;42618;51.226;4.910;2023-06-22T02:04:35;6.60;;;4.10;;
56736;SDS011;42618;51.226;4.910;2023-06-22T02:07:12;6.10;;;4.50;;
56736;SDS011;42618;51.226;4.910;2023-06-22T02:09:44;6.07;;;4.30;;
56736;SDS011;42618;51.226;4.910;2023-06-22T02:12:12;7.85;;;4.75;;
56736;SDS011;42618;51.226;4.910;2023-06-22T02:14:42;6.88;;;4.82;;
56736;SDS011;42618;51.226;4.910;2023-06-22T02:17:09;5.78;;;4.78;;
56736;SDS011;42618;51.226;4.910;2023-06-22T02:19:36;6.93;;;4.80;;
56736;SDS011;42618;51.226;4.910;2023-06-22T02:22:04;8.85;;;5.00;;
56736;SDS011;42618;51.226;4.910;2023-06-22T02:24:31;6.95;;;5.07;;
56736;SDS011;42618;51.226;4.910;2023-06-22T02:27:00;5.90;;;4.60;;
56736;SDS011;42618;51.226;4.910;2023-06-22T02:29:31;8.32;;;5.07;;
56736;SDS011;42618;51.226;4.910;2023-06-22T02:31:58;10.30;;;5.65;;
56736;SDS011;42618;51.226;4.910;2023-06-22T02:34:25;9.18;;;5.65;;
56736;SDS011;42618;51.226;4.910;2023-06-22T02:36:52;9.65;;;5.60;;
56736;SDS011;42618;51.226;4.910;2023-06-22T02:39:23;8.30;;;5.53;;
56736;SDS011;42618;51.226;4.910;2023-06-22T02:41:54;8.65;;;5.45;;
56736;SDS011;42618;51.226;4.910;2023-06-22T02:44:21;8.38;;;5.57;;
56736;SDS011;42618;51.226;4.910;2023-06-22T02:46:49;7.00;;;5.38;;
56736;SDS011;42618;51.226;4.910;2023-06-22T02:49:16;10.57;;;5.78;;
56736;SDS011;42618;51.226;4.910;2023-06-22T02:51:46;8.75;;;5.93;;
56736;SDS011;42618;51.226;4.910;2023-06-22T02:54:16;9.50;;;6.15;;
56736;SDS011;42618;51.226;4.910;2023-06-22T02:56:46;8.27;;;5.65;;
56736;SDS011;42618;51.226;4.910;2023-06-22T02:59:14;7.82;;;5.57;;
56736;SDS011;42618;51.226;4.910;2023-06-22T03:01:42;9.98;;;5.47;;
56736;SDS011;42618;51.226;4.910;2023-06-22T03:04:17;10.80;;;6.28;;
56736;SDS011;42618;51.226;4.910;2023-06-22T03:06:44;7.50;;;5.35;;
56736;SDS011;42618;51.226;4.910;2023-06-22T03:09:18;8.15;;;6.18;;
56736;SDS011;42618;51.226;4.910;2023-06-22T03:11:45;10.65;;;6.50;;
56736;SDS011;42618;51.226;4.910;2023-06-22T03:14:11;11.07;;;6.55;;
56736;SDS011;42618;51.226;4.910;2023-06-22T03:16:38;9.98;;;7.38;;
56736;SDS011;42618;51.226;4.910;2023-06-22T03:19:07;10.43;;;6.45;;
56736;SDS011;42618;51.226;4.910;2023-06-22T03:21:34;8.98;;;6.80;;
56736;SDS011;42618;51.226;4.910;2023-06-22T03:24:01;10.48;;;6.57;;
56736;SDS011;42618;51.226;4.910;2023-06-22T03:26:27;7.97;;;6.28;;
56736;SDS011;42618;51.226;4.910;2023-06-22T03:28:56;10.60;;;7.18;;
56736;SDS011;42618;51.226;4.910;2023-06-22T03:31:23;14.88;;;6.90;;
56736;SDS011;42618;51.226;4.910;2023-06-22T03:33:50;11.93;;;6.13;;
56736;SDS011;42618;51.226;4.910;2023-06-22T03:36:17;9.75;;;7.07;;
56736;SDS011;42618;51.226;4.910;2023-06-22T03:38:49;12.85;;;6.88;;
56736;SDS011;42618;51.226;4.910;2023-06-22T03:41:17;9.60;;;6.95;;
56736;SDS011;42618;51.226;4.910;2023-06-22T03:43:43;10.32;;;7.13;;
56736;SDS011;42618;51.226;4.910;2023-06-22T03:46:10;8.85;;;6.80;;
56736;SDS011;42618;51.226;4.910;2023-06-22T03:48:37;9.98;;;7.15;;
56736;SDS011;42618;51.226;4.910;2023-06-22T03:51:04;11.02;;;7.20;;
56736;SDS011;42618;51.226;4.910;2023-06-22T03:53:31;11.68;;;7.20;;
56736;SDS011;42618;51.226;4.910;2023-06-22T03:55:58;9.87;;;7.40;;
56736;SDS011;42618;51.226;4.910;2023-06-22T03:58:24;12.02;;;7.50;;
56736;SDS011;42618;51.226;4.910;2023-06-22T04:00:53;10.82;;;7.25;;
56736;SDS011;42618;51.226;4.910;2023-06-22T04:03:20;13.60;;;7.43;;
56736;SDS011;42618;51.226;4.910;2023-06-22T04:05:47;11.02;;;7.60;;
56736;SDS011;42618;51.226;4.910;2023-06-22T04:08:15;11.30;;;8.02;;
56736;SDS011;42618;51.226;4.910;2023-06-22T04:10:42;13.57;;;8.98;;
56736;SDS011;42618;51.226;4.910;2023-06-22T04:13:09;12.48;;;7.50;;
56736;SDS011;42618;51.226;4.910;2023-06-22T04:15:35;11.35;;;7.75;;
56736;SDS011;42618;51.226;4.910;2023-06-22T04:18:02;11.48;;;7.82;;
56736;SDS011;42618;51.226;4.910;2023-06-22T04:20:29;13.60;;;8.18;;
56736;SDS011;42618;51.226;4.910;2023-06-22T04:22:58;11.48;;;7.85;;
56736;SDS011;42618;51.226;4.910;2023-06-22T04:25:25;12.15;;;8.00;;
56736;SDS011;42618;51.226;4.910;2023-06-22T04:27:51;13.68;;;8.25;;
56736;SDS011;42618;51.226;4.910;2023-06-22T04:30:18;12.35;;;7.50;;
56736;SDS011;42618;51.226;4.910;2023-06-22T04:32:45;13.82;;;8.82;;
56736;SDS011;42618;51.226;4.910;2023-06-22T04:35:19;12.35;;;9.20;;
56736;SDS011;42618;51.226;4.910;2023-06-22T04:37:46;9.77;;;6.85;;
56736;SDS011;42618;51.226;4.910;2023-06-22T04:40:14;14.15;;;9.00;;
56736;SDS011;42618;51.226;4.910;2023-06-22T04:42:41;13.95;;;8.40;;
56736;SDS011;42618;51.226;4.910;2023-06-22T04:45:18;12.27;;;8.65;;
56736;SDS011;42618;51.226;4.910;2023-06-22T04:50:13;15.70;;;9.43;;
56736;SDS011;42618;51.226;4.910;2023-06-22T04:52:41;15.65;;;9.15;;
56736;SDS011;42618;51.226;4.910;2023-06-22T04:55:08;12.70;;;8.77;;
56736;SDS011;42618;51.226;4.910;2023-06-22T04:57:35;12.73;;;9.43;;
56736;SDS011;42618;51.226;4.910;2023-06-22T05:00:05;15.35;;;10.52;;
56736;SDS011;42618;51.226;4.910;2023-06-22T05:02:39;14.55;;;9.85;;
56736;SDS011;42618;51.226;4.910;2023-06-22T05:05:07;14.15;;;10.60;;
56736;SDS011;42618;51.226;4.910;2023-06-22T05:07:35;14.82;;;10.70;;
56736;SDS011;42618;51.226;4.910;2023-06-22T05:10:02;14.68;;;8.15;;
56736;SDS011;42618;51.226;4.910;2023-06-22T05:12:30;12.40;;;9.43;;
56736;SDS011;42618;51.226;4.910;2023-06-22T05:14:57;12.10;;;9.10;;
56736;SDS011;42618;51.226;4.910;2023-06-22T05:17:24;14.77;;;10.88;;
56736;SDS011;42618;51.226;4.910;2023-06-22T05:19:51;17.23;;;11.52;;
56736;SDS011;42618;51.226;4.910;2023-06-22T05:22:18;12.18;;;9.43;;
56736;SDS011;42618;51.226;4.910;2023-06-22T05:24:45;13.40;;;10.25;;
56736;SDS011;42618;51.226;4.910;2023-06-22T05:27:12;16.95;;;10.57;;
56736;SDS011;42618;51.226;4.910;2023-06-22T05:29:40;14.18;;;10.73;;
56736;SDS011;42618;51.226;4.910;2023-06-22T05:32:08;14.77;;;11.43;;
56736;SDS011;42618;51.226;4.910;2023-06-22T05:34:35;16.55;;;10.98;;
56736;SDS011;42618;51.226;4.910;2023-06-22T05:37:03;12.43;;;9.68;;
56736;SDS011;42618;51.226;4.910;2023-06-22T05:39:30;14.02;;;10.82;;
56736;SDS011;42618;51.226;4.910;2023-06-22T05:41:56;18.90;;;9.55;;
56736;SDS011;42618;51.226;4.910;2023-06-22T05:44:23;15.38;;;10.32;;
56736;SDS011;42618;51.226;4.910;2023-06-22T05:46:50;20.73;;;10.60;;
56736;SDS011;42618;51.226;4.910;2023-06-22T05:49:17;15.50;;;10.40;;
56736;SDS011;42618;51.226;4.910;2023-06-22T05:51:43;12.55;;;9.93;;
56736;SDS011;42618;51.226;4.910;2023-06-22T05:54:10;13.38;;;9.88;;
56736;SDS011;42618;51.226;4.910;2023-06-22T05:56:39;12.60;;;10.13;;
56736;SDS011;42618;51.226;4.910;2023-06-22T05:59:06;13.23;;;9.85;;
56736;SDS011;42618;51.226;4.910;2023-06-22T06:01:33;21.92;;;11.70;;
56736;SDS011;42618;51.226;4.910;2023-06-22T06:04:02;19.27;;;12.30;;
56736;SDS011;42618;51.226;4.910;2023-06-22T06:06:30;19.15;;;11.40;;
56736;SDS011;42618;51.226;4.910;2023-06-22T06:08:57;17.63;;;12.18;;
56736;SDS011;42618;51.226;4.910;2023-06-22T06:11:26;16.55;;;11.88;;
56736;SDS011;42618;51.226;4.910;2023-06-22T06:13:52;16.30;;;11.70;;
56736;SDS011;42618;51.226;4.910;2023-06-22T06:16:19;16.55;;;11.57;;
56736;SDS011;42618;51.226;4.910;2023-06-22T06:18:46;14.43;;;10.95;;
56736;SDS011;42618;51.226;4.910;2023-06-22T06:21:14;15.25;;;10.32;;
56736;SDS011;42618;51.226;4.910;2023-06-22T06:23:41;15.65;;;11.80;;
56736;SDS011;42618;51.226;4.910;2023-06-22T06:26:08;18.35;;;12.25;;
56736;SDS011;42618;51.226;4.910;2023-06-22T06:28:35;14.38;;;11.95;;
56736;SDS011;42618;51.226;4.910;2023-06-22T06:31:02;18.20;;;12.50;;
56736;SDS011;42618;51.226;4.910;2023-06-22T06:33:29;17.90;;;13.23;;
56736;SDS011;42618;51.226;4.910;2023-06-22T06:35:57;20.50;;;13.88;;
56736;SDS011;42618;51.226;4.910;2023-06-22T06:38:24;16.43;;;13.60;;
56736;SDS011;42618;51.226;4.910;2023-06-22T06:40:51;20.67;;;15.52;;
56736;SDS011;42618;51.226;4.910;2023-06-22T06:43:18;17.45;;;14.18;;
56736;SDS011;42618;51.226;4.910;2023-06-22T06:45:45;21.67;;;13.60;;
56736;SDS011;42618;51.226;4.910;2023-06-22T06:48:12;18.92;;;14.73;;
56736;SDS011;42618;51.226;4.910;2023-06-22T06:50:38;23.57;;;14.53;;
56736;SDS011;42618;51.226;4.910;2023-06-22T06:53:05;20.17;;;14.95;;
56736;SDS011;42618;51.226;4.910;2023-06-22T06:55:32;17.97;;;13.30;;
56736;SDS011;42618;51.226;4.910;2023-06-22T06:57:59;16.90;;;14.60;;
56736;SDS011;42618;51.226;4.910;2023-06-22T07:00:26;21.67;;;13.95;;
56736;SDS011;42618;51.226;4.910;2023-06-22T07:02:53;19.27;;;13.93;;
56736;SDS011;42618;51.226;4.910;2023-06-22T07:05:20;23.45;;;14.18;;
56736;SDS011;42618;51.226;4.910;2023-06-22T07:07:47;25.50;;;14.18;;
56736;SDS011;42618;51.226;4.910;2023-06-22T07:10:14;17.30;;;12.95;;
56736;SDS011;42618;51.226;4.910;2023-06-22T07:12:41;23.75;;;15.07;;
56736;SDS011;42618;51.226;4.910;2023-06-22T07:15:09;18.10;;;13.00;;
56736;SDS011;42618;51.226;4.910;2023-06-22T07:17:37;21.83;;;12.07;;
56736;SDS011;42618;51.226;4.910;2023-06-22T07:20:07;18.42;;;11.32;;
56736;SDS011;42618;51.226;4.910;2023-06-22T07:22:39;13.38;;;10.48;;
56736;SDS011;42618;51.226;4.910;2023-06-22T07:25:07;15.80;;;10.15;;
56736;SDS011;42618;51.226;4.910;2023-06-22T07:27:45;13.90;;;9.48;;
56736;SDS011;42618;51.226;4.910;2023-06-22T07:30:22;15.82;;;9.43;;
56736;SDS011;42618;51.226;4.910;2023-06-22T07:32:49;13.27;;;8.33;;
56736;SDS011;42618;51.226;4.910;2023-06-22T07:35:16;9.70;;;7.47;;
56736;SDS011;42618;51.226;4.910;2023-06-22T07:37:43;16.17;;;8.65;;
56736;SDS011;42618;51.226;4.910;2023-06-22T07:40:10;11.27;;;7.47;;
56736;SDS011;42618;51.226;4.910;2023-06-22T07:42:37;9.48;;;7.32;;
56736;SDS011;42618;51.226;4.910;2023-06-22T07:45:04;12.45;;;7.45;;
56736;SDS011;42618;51.226;4.910;2023-06-22T07:47:34;9.77;;;6.75;;
56736;SDS011;42618;51.226;4.910;2023-06-22T07:52:30;10.13;;;6.63;;
56736;SDS011;42618;51.226;4.910;2023-06-22T07:54:57;12.80;;;10.55;;
56736;SDS011;42618;51.226;4.910;2023-06-22T07:57:24;15.93;;;10.40;;
56736;SDS011;42618;51.226;4.910;2023-06-22T08:00:02;8.63;;;5.30;;
56736;SDS011;42618;51.226;4.910;2023-06-22T08:02:40;6.57;;;5.00;;
56736;SDS011;42618;51.226;4.910;2023-06-22T08:05:09;6.18;;;4.63;;
56736;SDS011;42618;51.226;4.910;2023-06-22T08:10:22;6.60;;;5.13;;
56736;SDS011;42618;51.226;4.910;2023-06-22T08:12:50;6.15;;;4.82;;
56736;SDS011;42618;51.226;4.910;2023-06-22T08:15:18;6.97;;;4.63;;
56736;SDS011;42618;51.226;4.910;2023-06-22T08:17:45;8.50;;;5.18;;
56736;SDS011;42618;51.226;4.910;2023-06-22T08:20:12;7.63;;;4.80;;
56736;SDS011;42618;51.226;4.910;2023-06-22T08:22:40;6.95;;;4.95;;
56736;SDS011;42618;51.226;4.910;2023-06-22T08:25:08;6.45;;;4.88;;
56736;SDS011;42618;51.226;4.910;2023-06-22T08:27:35;12.70;;;5.90;;
56736;SDS011;42618;51.226;4.910;2023-06-22T08:30:02;7.53;;;5.60;;
56736;SDS011;42618;51.226;4.910;2023-06-22T08:32:29;10.05;;;6.97;;
56736;SDS011;42618;51.226;4.910;2023-06-22T08:34:56;9.75;;;6.53;;
56736;SDS011;42618;51.226;4.910;2023-06-22T08:37:23;8.65;;;5.82;;
56736;SDS011;42618;51.226;4.910;2023-06-22T08:39:58;9.40;;;6.95;;
56736;SDS011;42618;51.226;4.910;2023-06-22T08:42:27;9.25;;;6.63;;
56736;SDS011;42618;51.226;4.910;2023-06-22T08:44:55;14.77;;;8.47;;
56736;SDS011;42618;51.226;4.910;2023-06-22T08:47:22;12.68;;;8.35;;
56736;SDS011;42618;51.226;4.910;2023-06-22T08:49:49;9.65;;;7.78;;
56736;SDS011;42618;51.226;4.910;2023-06-22T08:52:17;9.65;;;7.43;;
56736;SDS011;42618;51.226;4.910;2023-06-22T08:57:10;9.32;;;7.50;;
56736;SDS011;42618;51.226;4.910;2023-06-22T08:59:37;8.65;;;7.00;;
56736;SDS011;42618;51.226;4.910;2023-06-22T09:02:04;12.27;;;8.20;;
56736;SDS011;42618;51.226;4.910;2023-06-22T09:07:01;11.88;;;8.02;;
56736;SDS011;42618;51.226;4.910;2023-06-22T09:09:28;10.27;;;7.18;;
56736;SDS011;42618;51.226;4.910;2023-06-22T09:11:55;13.85;;;8.60;;
56736;SDS011;42618;51.226;4.910;2023-06-22T09:14:22;14.73;;;10.07;;
56736;SDS011;42618;51.226;4.910;2023-06-22T09:16:49;12.45;;;8.50;;
56736;SDS011;42618;51.226;4.910;2023-06-22T09:19:15;16.20;;;9.55;;
56736;SDS011;42618;51.226;4.910;2023-06-22T09:21:42;16.63;;;9.70;;
56736;SDS011;42618;51.226;4.910;2023-06-22T09:24:09;11.63;;;8.83;;
56736;SDS011;42618;51.226;4.910;2023-06-22T09:26:36;12.93;;;8.73;;
56736;SDS011;42618;51.226;4.910;2023-06-22T09:29:04;13.90;;;8.10;;
56736;SDS011;42618;51.226;4.910;2023-06-22T09:31:32;12.48;;;8.82;;
56736;SDS011;42618;51.226;4.910;2023-06-22T09:33:59;10.43;;;9.10;;
56736;SDS011;42618;51.226;4.910;2023-06-22T09:36:25;11.90;;;9.05;;
56736;SDS011;42618;51.226;4.910;2023-06-22T09:38:52;14.00;;;8.68;;
56736;SDS011;42618;51.226;4.910;2023-06-22T09:41:21;12.90;;;7.93;;
56736;SDS011;42618;51.226;4.910;2023-06-22T09:46:16;12.18;;;8.23;;
56736;SDS011;42618;51.226;4.910;2023-06-22T09:48:43;11.05;;;7.60;;
56736;SDS011;42618;51.226;4.910;2023-06-22T09:51:10;47.55;;;30.20;;
56736;SDS011;42618;51.226;4.910;2023-06-22T09:53:38;23.38;;;17.20;;
56736;SDS011;42618;51.226;4.910;2023-06-22T09:56:04;13.55;;;8.75;;
56736;SDS011;42618;51.226;4.910;2023-06-22T09:58:32;11.40;;;8.50;;
56736;SDS011;42618;51.226;4.910;2023-06-22T10:00:59;12.75;;;8.75;;
56736;SDS011;42618;51.226;4.910;2023-06-22T10:03:26;11.95;;;8.48;;
56736;SDS011;42618;51.226;4.910;2023-06-22T10:05:53;13.63;;;9.15;;
56736;SDS011;42618;51.226;4.910;2023-06-22T10:08:20;14.67;;;9.17;;
56736;SDS011;42618;51.226;4.910;2023-06-22T10:10:46;11.15;;;8.32;;
56736;SDS011;42618;51.226;4.910;2023-06-22T10:13:13;15.13;;;8.40;;
56736;SDS011;42618;51.226;4.910;2023-06-22T10:15:41;12.45;;;9.30;;
56736;SDS011;42618;51.226;4.910;2023-06-22T10:18:08;14.13;;;10.07;;
56736;SDS011;42618;51.226;4.910;2023-06-22T10:20:34;14.60;;;7.90;;
56736;SDS011;42618;51.226;4.910;2023-06-22T10:23:02;13.90;;;10.30;;
56736;SDS011;42618;51.226;4.910;2023-06-22T10:25:29;15.13;;;10.10;;
56736;SDS011;42618;51.226;4.910;2023-06-22T10:27:56;14.85;;;10.98;;
56736;SDS011;42618;51.226;4.910;2023-06-22T10:30:23;15.65;;;10.93;;
56736;SDS011;42618;51.226;4.910;2023-06-22T10:32:50;98.97;;;60.83;;
56736;SDS011;42618;51.226;4.910;2023-06-22T10:35:17;97.10;;;69.87;;
56736;SDS011;42618;51.226;4.910;2023-06-22T10:37:44;17.90;;;11.83;;
56736;SDS011;42618;51.226;4.910;2023-06-22T10:42:42;18.05;;;11.50;;
56736;SDS011;42618;51.226;4.910;2023-06-22T10:45:09;17.30;;;12.02;;
56736;SDS011;42618;51.226;4.910;2023-06-22T10:47:37;21.50;;;13.48;;
56736;SDS011;42618;51.226;4.910;2023-06-22T10:50:04;20.23;;;13.05;;
56736;SDS011;42618;51.226;4.910;2023-06-22T10:52:31;18.40;;;11.77;;
56736;SDS011;42618;51.226;4.910;2023-06-22T10:54:58;20.45;;;14.10;;
56736;SDS011;42618;51.226;4.910;2023-06-22T10:57:25;17.35;;;13.38;;
56736;SDS011;42618;51.226;4.910;2023-06-22T10:59:51;21.55;;;13.65;;
56736;SDS011;42618;51.226;4.910;2023-06-22T11:02:18;21.13;;;14.73;;
56736;SDS011;42618;51.226;4.910;2023-06-22T11:04:45;18.42;;;13.73;;
56736;SDS011;42618;51.226;4.910;2023-06-22T11:07:14;19.70;;;13.10;;
56736;SDS011;42618;51.226;4.910;2023-06-22T11:09:44;22.00;;;15.18;;
56736;SDS011;42618;51.226;4.910;2023-06-22T11:12:11;22.00;;;14.80;;
56736;SDS011;42618;51.226;4.910;2023-06-22T11:14:38;22.27;;;16.38;;
56736;SDS011;42618;51.226;4.910;2023-06-22T11:17:05;22.10;;;16.05;;
56736;SDS011;42618;51.226;4.910;2023-06-22T11:19:32;28.48;;;18.13;;
56736;SDS011;42618;51.226;4.910;2023-06-22T11:21:59;26.17;;;18.65;;
56736;SDS011;42618;51.226;4.910;2023-06-22T11:24:25;30.17;;;19.25;;
56736;SDS011;42618;51.226;4.910;2023-06-22T11:26:52;26.95;;;19.77;;
56736;SDS011;42618;51.226;4.910;2023-06-22T11:29:19;25.83;;;20.02;;
56736;SDS011;42618;51.226;4.910;2023-06-22T11:32:03;27.80;;;20.40;;
56736;SDS011;42618;51.226;4.910;2023-06-22T11:34:30;29.23;;;19.77;;
56736;SDS011;42618;51.226;4.910;2023-06-22T11:36:56;27.80;;;20.42;;
56736;SDS011;42618;51.226;4.910;2023-06-22T11:39:23;32.03;;;20.63;;
56736;SDS011;42618;51.226;4.910;2023-06-22T11:42:06;31.88;;;20.88;;
56736;SDS011;42618;51.226;4.910;2023-06-22T11:44:34;31.75;;;21.65;;
56736;SDS011;42618;51.226;4.910;2023-06-22T11:47:01;33.70;;;20.77;;
56736;SDS011;42618;51.226;4.910;2023-06-22T11:49:30;36.33;;;19.90;;
56736;SDS011;42618;51.226;4.910;2023-06-22T11:51:57;29.83;;;21.15;;
56736;SDS011;42618;51.226;4.910;2023-06-22T11:54:24;32.42;;;21.17;;
56736;SDS011;42618;51.226;4.910;2023-06-22T11:56:51;31.23;;;20.75;;
56736;SDS011;42618;51.226;4.910;2023-06-22T11:59:17;32.45;;;21.25;;
56736;SDS011;42618;51.226;4.910;2023-06-22T12:01:45;29.80;;;20.35;;
56736;SDS011;42618;51.226;4.910;2023-06-22T12:04:12;31.23;;;20.90;;
56736;SDS011;42618;51.226;4.910;2023-06-22T12:06:39;30.58;;;19.52;;
56736;SDS011;42618;51.226;4.910;2023-06-22T12:09:08;32.28;;;20.65;;
56736;SDS011;42618;51.226;4.910;2023-06-22T12:11:35;32.08;;;21.60;;
56736;SDS011;42618;51.226;4.910;2023-06-22T12:14:02;33.30;;;21.70;;
56736;SDS011;42618;51.226;4.910;2023-06-22T12:16:28;33.30;;;20.25;;
56736;SDS011;42618;51.226;4.910;2023-06-22T12:18:55;27.75;;;20.40;;
56736;SDS011;42618;51.226;4.910;2023-06-22T12:21:22;29.80;;;20.60;;
56736;SDS011;42618;51.226;4.910;2023-06-22T12:23:52;27.88;;;19.95;;
56736;SDS011;42618;51.226;4.910;2023-06-22T12:26:19;32.30;;;21.70;;
56736;SDS011;42618;51.226;4.910;2023-06-22T12:28:46;30.88;;;20.95;;
56736;SDS011;42618;51.226;4.910;2023-06-22T12:31:14;33.10;;;22.00;;
56736;SDS011;42618;51.226;4.910;2023-06-22T12:33:40;30.03;;;21.13;;
56736;SDS011;42618;51.226;4.910;2023-06-22T12:36:08;29.27;;;21.50;;
56736;SDS011;42618;51.226;4.910;2023-06-22T12:38:35;32.92;;;23.83;;
56736;SDS011;42618;51.226;4.910;2023-06-22T12:41:01;33.60;;;23.57;;
56736;SDS011;42618;51.226;4.910;2023-06-22T12:43:28;28.67;;;20.17;;
56736;SDS011;42618;51.226;4.910;2023-06-22T12:45:55;30.58;;;21.77;;
56736;SDS011;42618;51.226;4.910;2023-06-22T12:48:23;27.42;;;20.35;;
56736;SDS011;42618;51.226;4.910;2023-06-22T12:50:51;28.90;;;20.63;;
56736;SDS011;42618;51.226;4.910;2023-06-22T12:53:20;27.85;;;20.13;;
56736;SDS011;42618;51.226;4.910;2023-06-22T12:55:49;33.28;;;19.23;;
56736;SDS011;42618;51.226;4.910;2023-06-22T12:58:16;29.00;;;18.58;;
56736;SDS011;42618;51.226;4.910;2023-06-22T13:00:43;29.70;;;19.75;;
56736;SDS011;42618;51.226;4.910;2023-06-22T13:03:10;28.75;;;19.25;;
56736;SDS011;42618;51.226;4.910;2023-06-22T13:05:37;25.60;;;17.83;;
56736;SDS011;42618;51.226;4.910;2023-06-22T13:08:04;27.00;;;19.95;;
56736;SDS011;42618;51.226;4.910;2023-06-22T13:10:31;27.17;;;18.83;;
56736;SDS011;42618;51.226;4.910;2023-06-22T13:12:59;24.75;;;19.27;;
56736;SDS011;42618;51.226;4.910;2023-06-22T13:15:29;25.85;;;18.65;;
56736;SDS011;42618;51.226;4.910;2023-06-22T13:17:57;24.77;;;17.77;;
56736;SDS011;42618;51.226;4.910;2023-06-22T13:20:23;23.65;;;17.85;;
56736;SDS011;42618;51.226;4.910;2023-06-22T13:22:50;25.30;;;18.50;;
56736;SDS011;42618;51.226;4.910;2023-06-22T13:25:17;24.15;;;19.45;;
56736;SDS011;42618;51.226;4.910;2023-06-22T13:27:46;25.98;;;19.13;;
56736;SDS011;42618;51.226;4.910;2023-06-22T13:30:12;24.77;;;19.35;;
56736;SDS011;42618;51.226;4.910;2023-06-22T13:32:41;22.15;;;16.20;;
56736;SDS011;42618;51.226;4.910;2023-06-22T13:35:09;23.85;;;18.75;;
56736;SDS011;42618;51.226;4.910;2023-06-22T13:37:37;19.67;;;15.02;;
56736;SDS011;42618;51.226;4.910;2023-06-22T13:40:04;23.00;;;17.45;;
56736;SDS011;42618;51.226;4.910;2023-06-22T13:42:33;21.10;;;16.38;;
56736;SDS011;42618;51.226;4.910;2023-06-22T13:45:00;18.70;;;15.83;;
56736;SDS011;42618;51.226;4.910;2023-06-22T13:47:26;24.13;;;17.57;;
56736;SDS011;42618;51.226;4.910;2023-06-22T13:49:56;21.58;;;16.40;;
56736;SDS011;42618;51.226;4.910;2023-06-22T13:52:24;24.23;;;17.17;;
56736;SDS011;42618;51.226;4.910;2023-06-22T13:54:51;22.80;;;17.15;;
56736;SDS011;42618;51.226;4.910;2023-06-22T13:57:18;19.40;;;15.10;;
56736;SDS011;42618;51.226;4.910;2023-06-22T13:59:45;27.63;;;16.45;;
56736;SDS011;42618;51.226;4.910;2023-06-22T14:02:12;23.15;;;16.60;;
56736;SDS011;42618;51.226;4.910;2023-06-22T14:04:39;21.60;;;15.80;;
56736;SDS011;42618;51.226;4.910;2023-06-22T14:07:05;21.92;;;16.13;;
56736;SDS011;42618;51.226;4.910;2023-06-22T14:09:32;21.83;;;16.48;;
56736;SDS011;42618;51.226;4.910;2023-06-22T14:12:02;20.63;;;17.30;;
56736;SDS011;42618;51.226;4.910;2023-06-22T14:14:33;20.38;;;15.38;;
56736;SDS011;42618;51.226;4.910;2023-06-22T14:17:00;19.70;;;14.63;;
56736;SDS011;42618;51.226;4.910;2023-06-22T14:19:27;23.40;;;16.97;;
56736;SDS011;42618;51.226;4.910;2023-06-22T14:21:54;18.50;;;14.15;;
56736;SDS011;42618;51.226;4.910;2023-06-22T14:24:20;22.63;;;16.52;;
56736;SDS011;42618;51.226;4.910;2023-06-22T14:26:51;23.38;;;15.60;;
56736;SDS011;42618;51.226;4.910;2023-06-22T14:29:18;19.17;;;14.23;;
56736;SDS011;42618;51.226;4.910;2023-06-22T14:31:45;18.70;;;12.80;;
56736;SDS011;42618;51.226;4.910;2023-06-22T14:34:13;22.55;;;14.20;;
56736;SDS011;42618;51.226;4.910;2023-06-22T14:36:40;19.47;;;13.67;;
56736;SDS011;42618;51.226;4.910;2023-06-22T14:39:08;18.40;;;12.60;;
56736;SDS011;42618;51.226;4.910;2023-06-22T14:41:35;16.60;;;12.32;;
56736;SDS011;42618;51.226;4.910;2023-06-22T14:44:02;16.60;;;12.88;;
56736;SDS011;42618;51.226;4.910;2023-06-22T14:46:29;16.83;;;12.30;;
56736;SDS011;42618;51.226;4.910;2023-06-22T14:48:56;16.23;;;13.07;;
56736;SDS011;42618;51.226;4.910;2023-06-22T14:51:23;17.85;;;12.63;;
56736;SDS011;42618;51.226;4.910;2023-06-22T14:53:49;16.08;;;12.00;;
56736;SDS011;42618;51.226;4.910;2023-06-22T14:56:16;16.27;;;12.63;;
56736;SDS011;42618;51.226;4.910;2023-06-22T14:58:43;18.00;;;14.70;;
56736;SDS011;42618;51.226;4.910;2023-06-22T15:01:13;20.58;;;14.63;;
56736;SDS011;42618;51.226;4.910;2023-06-22T15:03:42;20.45;;;15.57;;
56736;SDS011;42618;51.226;4.910;2023-06-22T15:06:09;21.23;;;15.17;;
56736;SDS011;42618;51.226;4.910;2023-06-22T15:08:37;17.38;;;14.30;;